ΕΜΥ, Εθνική Μετεωρολογική Υπηρεσία - Δελτία Καιρού, Προγνώσεις

ΑΕΡΟΝΑΥΤΙΛΙΑ

GREEK AIRPORTS CODES

LGKZ 192320Z AUTO VRB03KT //// // ////// M04/M11 Q1026 RE//=

EUROPEAN AIRPORTS CODES

LFPO 192300Z 28005KT 8000 SCT010 BKN033 06/06 Q1028 NOSIG=